Terminal Aerodrome Forecast
Issued by NWS Cleveland, OH

Home | Current Version | Previous Version | Text Only | Print | Product List | Glossary On
Versions: 1 2 3 4 5 6 7 8 9 10 11 12 13
000
FTUS41 KCLE 060737 AAA
TAFTOL
TAF AMD
KTOL 060737Z 0608/0706 VRB03KT 4SM BR BKN250
      TEMPO 0610/0612 2SM BR
     FM061300 VRB05KT P6SM BKN250
     FM061600 23007KT P6SM SCT250
     FM070000 21005KT P6SM SKC=

USA.gov is the U.S. government's official web portal to all federal, state and local government web resources and services.